Tropical Cyclones
[Index]
Main Index Home Page Stock Weather Photos Extreme Storms Discussion Storm News and Storm Chasing Reports Tropical Cyclones / Hurricanes / Typhoons Weather Data and Links Wild Fires / Bushfires Weather Observation Techniques Weather Picture Catalogue Tornado Pictures and Reports Stock Video Footage and DVDs for sale
Season 2005-2006 Tropical Cyclone GLENDA Track Map
Season 2005-2006 Summaries (Operational Data): [AU] [SIO] [SPAC] [SH]
<<- Previous TC | 2005-2006 Season | Next TC ->>

click for intensity scale information  Lat/long Grid: Show Hide

 Date Labels: Show Hide

Operational Tropical Cyclone Data : JTWC Advisories | BoM Warnings

Name: GLENDA
Number: 0620

23 Mar 2006 21:00 UTC to 31 Mar 2006 03:00 UTC

    date/time    lat    long     hPa   cat  kts
2006-03-23 21   15.2   128.8     998         25          
2006-03-24 00   15.2   128.5     998         25          
2006-03-24 06   15.1   128.6     998         25          
2006-03-24 12   15.1   128.5    1000         25          
2006-03-24 18   14.8   128.4     998         25          
2006-03-25 00   14.9   127.8     999         25          
2006-03-25 06   14.8   127.6     999         25          
2006-03-25 12   14.6   127.3     999         25          
2006-03-25 18   15.0   126.7     999         25          
2006-03-26 00   15.0   125.6     998         25          
2006-03-26 06   15.1   125.0     998         30          
2006-03-26 12   15.4   124.9     996         30          
2006-03-26 18   15.1   124.7     996         30          
2006-03-27 00   15.1   124.3     994         30          
2006-03-27 03   15.0   123.9     990    1    35          
2006-03-27 06   15.2   123.5     980    2    50          
2006-03-27 12   15.4   123.0     970    3    65          
2006-03-27 18   15.6   122.2     965    3    70          
2006-03-28 00   15.6   121.6     955    3    80          
2006-03-28 06   16.0   121.1     925    4   100          
2006-03-28 12   16.7   120.4     910    5   115          
2006-03-28 18   17.0   119.5     910    5   115          
2006-03-29 00   17.3   118.8     910    5   110          
2006-03-29 06   17.7   118.0     920    4   100          
2006-03-29 12   18.3   117.5     920    4   100          
2006-03-29 18   18.8   116.7     925    4   100          
2006-03-30 00   19.5   116.5     936    4    90          
2006-03-30 06   20.7   115.8     930    4    95          
2006-03-30 12   21.7   115.2     940    4    90          
2006-03-30 18   22.2   114.8     975    2    55          
2006-03-31 00   23.3   114.8     990    1    35          
2006-03-31 03   24.0   115.0     994         30          
Winds are 10-min average.

Tropical cyclone tracks developed by Michael Bath using operational warnings and advisories and Google Maps.


[Australian Severe Weather index] [Copyright Notice] [Email Contacts] [Search This Site] [Privacy Policy]
Document: tropical_cyclone_glenda.htm Updated: 28 May 2013